Nisshoumaru — JD3093 — position and weather

sailwx.info

Track history (hours):
 
Tides and Currents Weather Stations Pressure Air Temp Water Temp Dewpoint Dewpoint Depression Visibility Wind Speed Wind Dir Waves Ship Positions

Nisshoumaru

Last reported at 2014-Nov-24 03:27 UTC. Time now 2014-Nov-26 12:46 UTC.
Position N 34°35' E 134°53'.

Length 76 m; draft 4 m.

Type: Cargo ship. MMSI: 431001549.

Date/timePositionNaut miles runAvg speedWind from/ knotsBaromVisibWave heightAir tempDewpointWater temp
2014-Nov-24 03:27N 34°35' E 134°53'1112.3
2014-Nov-24 02:33N 34°35' E 135°06'1313.3
2014-Nov-24 01:33N 34°36' E 135°22'1 0.3
2014-Nov-23 22:33N 34°36' E 135°23'1 0.8
2014-Nov-23 21:33N 34°36' E 135°23'0 0.0
2014-Nov-23 20:33N 34°36' E 135°23'0 0.0
2014-Nov-23 19:33N 34°36' E 135°23'0 0.0
2014-Nov-23 18:33N 34°36' E 135°23'0 0.1
2014-Nov-23 17:33N 34°36' E 135°23'0 0.0
2014-Nov-23 16:33N 34°36' E 135°23'0 0.0
2014-Nov-23 15:33N 34°36' E 135°23'0 0.0
2014-Nov-23 14:33N 34°36' E 135°23'0 0.0
2014-Nov-23 13:33N 34°36' E 135°23'0 0.0
2014-Nov-23 12:34N 34°36' E 135°23'0 0.0
2014-Nov-23 11:33N 34°36' E 135°23'0 0.0
2014-Nov-23 10:33N 34°36' E 135°23'0 0.0
2014-Nov-23 09:32N 34°36' E 135°23'0 0.0
2014-Nov-23 08:33N 34°36' E 135°23'7 7.0
2014-Nov-23 07:32N 34°31' E 135°17'1312.2
2014-Nov-23 06:30N 34°21' E 135°06'7 7.6
2014-Nov-23 05:34N 34°14' E 135°07'0 0.5
2014-Nov-23 04:33N 34°15' E 135°07'0 0.0
2014-Nov-23 03:33N 34°15' E 135°07'0 0.0
2014-Nov-23 02:32N 34°15' E 135°07'0 0.0
2014-Nov-23 01:32N 34°15' E 135°07'0 0.0
2014-Nov-23 00:34N 34°15' E 135°07'0 0.0
2014-Nov-22 23:33N 34°15' E 135°07'0 0.0
2014-Nov-22 22:33N 34°15' E 135°07'0 0.0
2014-Nov-22 21:33N 34°15' E 135°07'0 0.0
2014-Nov-22 20:34N 34°15' E 135°07'0 0.0
2014-Nov-22 19:33N 34°15' E 135°07'0 0.0
2014-Nov-22 18:33N 34°15' E 135°07'0 0.0
2014-Nov-22 17:33N 34°15' E 135°07'0 0.0
2014-Nov-22 16:33N 34°15' E 135°07'0 0.0
2014-Nov-22 15:33N 34°15' E 135°07'0 0.0
2014-Nov-22 14:33N 34°15' E 135°07'0 0.0
2014-Nov-22 13:33N 34°15' E 135°07'0 0.0
2014-Nov-22 12:34N 34°15' E 135°07'0 0.0
2014-Nov-22 11:33N 34°15' E 135°07'0 0.0
2014-Nov-22 10:33N 34°15' E 135°07'0 0.0
2014-Nov-22 09:33N 34°15' E 135°07'0 0.0
2014-Nov-22 08:33N 34°15' E 135°07'0 0.0
2014-Nov-22 07:33N 34°15' E 135°07'0 0.0
2014-Nov-22 06:33N 34°15' E 135°07'0 0.0
2014-Nov-22 05:33N 34°15' E 135°07'0 0.0
2014-Nov-22 04:33N 34°15' E 135°07'0 0.0
2014-Nov-22 03:33N 34°15' E 135°07'0 0.0
2014-Nov-22 02:33N 34°15' E 135°07'0 0.0
2014-Nov-22 01:33N 34°15' E 135°07'1 0.9
2014-Nov-22 00:33N 34°15' E 135°06'0 0.0
2014-Nov-21 23:33N 34°15' E 135°06'0 0.0
2014-Nov-21 22:33N 34°15' E 135°06'4 4.1
2014-Nov-21 21:33N 34°11' E 135°04'  
2014-Nov-18 06:28N 35°17' E 139°45'1112.4
2014-Nov-18 05:33N 35°27' E 139°41'2 1.8
2014-Nov-18 04:33N 35°29' E 139°39'0 0.0
2014-Nov-18 03:33N 35°29' E 139°39'0 0.0
2014-Nov-18 02:33N 35°29' E 139°39'0 0.1
2014-Nov-18 01:33N 35°29' E 139°39'0 0.0
2014-Nov-18 00:33N 35°29' E 139°39'0 0.0
2014-Nov-17 23:33N 35°29' E 139°39'3 2.6
2014-Nov-17 22:33N 35°27' E 139°42'1 1.3
2014-Nov-17 21:33N 35°26' E 139°42'0 0.0
2014-Nov-17 20:34N 35°26' E 139°42'0 0.0
2014-Nov-17 19:33N 35°26' E 139°42'0 0.0
2014-Nov-17 18:34N 35°26' E 139°42'0 0.0
2014-Nov-17 17:34N 35°26' E 139°42'0 0.0
2014-Nov-17 16:34N 35°26' E 139°42'0 0.0
2014-Nov-17 15:34N 35°26' E 139°42'0 0.0
2014-Nov-17 14:34N 35°26' E 139°42'0 0.1
2014-Nov-17 13:33N 35°26' E 139°42'0 0.0
2014-Nov-17 12:34N 35°26' E 139°42'0 0.0
2014-Nov-17 11:34N 35°26' E 139°42'0 0.0
2014-Nov-17 10:34N 35°26' E 139°42'4 4.2
2014-Nov-17 09:33N 35°21' E 139°43'  
Track history (hours):
 
Tides and Currents Weather Stations Pressure Air Temp Water Temp Dewpoint Dewpoint Depression Visibility Wind Speed Wind Dir Waves Ship Positions

Nisshoumaru

Last reported at 2014-Nov-24 03:27 UTC. Time now 2014-Nov-26 12:46 UTC.
Position N 34°35' E 134°53'.

Length 76 m; draft 4 m.

Type: Cargo ship. MMSI: 431001549.

Date/timePositionNaut miles runAvg speedWind from/ knotsBaromVisibWave heightAir tempDewpointWater temp
2014-Nov-24 03:27N 34°35' E 134°53'1112.3
2014-Nov-24 02:33N 34°35' E 135°06'1313.3
2014-Nov-24 01:33N 34°36' E 135°22'1 0.3
2014-Nov-23 22:33N 34°36' E 135°23'1 0.8
2014-Nov-23 21:33N 34°36' E 135°23'0 0.0
2014-Nov-23 20:33N 34°36' E 135°23'0 0.0
2014-Nov-23 19:33N 34°36' E 135°23'0 0.0
2014-Nov-23 18:33N 34°36' E 135°23'0 0.1
2014-Nov-23 17:33N 34°36' E 135°23'0 0.0
2014-Nov-23 16:33N 34°36' E 135°23'0 0.0
2014-Nov-23 15:33N 34°36' E 135°23'0 0.0
2014-Nov-23 14:33N 34°36' E 135°23'0 0.0
2014-Nov-23 13:33N 34°36' E 135°23'0 0.0
2014-Nov-23 12:34N 34°36' E 135°23'0 0.0
2014-Nov-23 11:33N 34°36' E 135°23'0 0.0
2014-Nov-23 10:33N 34°36' E 135°23'0 0.0
2014-Nov-23 09:32N 34°36' E 135°23'0 0.0
2014-Nov-23 08:33N 34°36' E 135°23'7 7.0
2014-Nov-23 07:32N 34°31' E 135°17'1312.2
2014-Nov-23 06:30N 34°21' E 135°06'7 7.6
2014-Nov-23 05:34N 34°14' E 135°07'0 0.5
2014-Nov-23 04:33N 34°15' E 135°07'0 0.0
2014-Nov-23 03:33N 34°15' E 135°07'0 0.0
2014-Nov-23 02:32N 34°15' E 135°07'0 0.0
2014-Nov-23 01:32N 34°15' E 135°07'0 0.0
2014-Nov-23 00:34N 34°15' E 135°07'0 0.0
2014-Nov-22 23:33N 34°15' E 135°07'0 0.0
2014-Nov-22 22:33N 34°15' E 135°07'0 0.0
2014-Nov-22 21:33N 34°15' E 135°07'0 0.0
2014-Nov-22 20:34N 34°15' E 135°07'0 0.0
2014-Nov-22 19:33N 34°15' E 135°07'0 0.0
2014-Nov-22 18:33N 34°15' E 135°07'0 0.0
2014-Nov-22 17:33N 34°15' E 135°07'0 0.0
2014-Nov-22 16:33N 34°15' E 135°07'0 0.0
2014-Nov-22 15:33N 34°15' E 135°07'0 0.0
2014-Nov-22 14:33N 34°15' E 135°07'0 0.0
2014-Nov-22 13:33N 34°15' E 135°07'0 0.0
2014-Nov-22 12:34N 34°15' E 135°07'0 0.0
2014-Nov-22 11:33N 34°15' E 135°07'0 0.0
2014-Nov-22 10:33N 34°15' E 135°07'0 0.0
2014-Nov-22 09:33N 34°15' E 135°07'0 0.0
2014-Nov-22 08:33N 34°15' E 135°07'0 0.0
2014-Nov-22 07:33N 34°15' E 135°07'0 0.0
2014-Nov-22 06:33N 34°15' E 135°07'0 0.0
2014-Nov-22 05:33N 34°15' E 135°07'0 0.0
2014-Nov-22 04:33N 34°15' E 135°07'0 0.0
2014-Nov-22 03:33N 34°15' E 135°07'0 0.0
2014-Nov-22 02:33N 34°15' E 135°07'0 0.0
2014-Nov-22 01:33N 34°15' E 135°07'1 0.9
2014-Nov-22 00:33N 34°15' E 135°06'0 0.0
2014-Nov-21 23:33N 34°15' E 135°06'0 0.0
2014-Nov-21 22:33N 34°15' E 135°06'4 4.1
2014-Nov-21 21:33N 34°11' E 135°04'  
2014-Nov-18 06:28N 35°17' E 139°45'1112.4
2014-Nov-18 05:33N 35°27' E 139°41'2 1.8
2014-Nov-18 04:33N 35°29' E 139°39'0 0.0
2014-Nov-18 03:33N 35°29' E 139°39'0 0.0
2014-Nov-18 02:33N 35°29' E 139°39'0 0.1
2014-Nov-18 01:33N 35°29' E 139°39'0 0.0
2014-Nov-18 00:33N 35°29' E 139°39'0 0.0
2014-Nov-17 23:33N 35°29' E 139°39'3 2.6
2014-Nov-17 22:33N 35°27' E 139°42'1 1.3
2014-Nov-17 21:33N 35°26' E 139°42'0 0.0
2014-Nov-17 20:34N 35°26' E 139°42'0 0.0
2014-Nov-17 19:33N 35°26' E 139°42'0 0.0
2014-Nov-17 18:34N 35°26' E 139°42'0 0.0
2014-Nov-17 17:34N 35°26' E 139°42'0 0.0
2014-Nov-17 16:34N 35°26' E 139°42'0 0.0
2014-Nov-17 15:34N 35°26' E 139°42'0 0.0
2014-Nov-17 14:34N 35°26' E 139°42'0 0.1
2014-Nov-17 13:33N 35°26' E 139°42'0 0.0
2014-Nov-17 12:34N 35°26' E 139°42'0 0.0
2014-Nov-17 11:34N 35°26' E 139°42'0 0.0
2014-Nov-17 10:34N 35°26' E 139°42'4 4.2
2014-Nov-17 09:33N 35°21' E 139°43'  

Dump ship's entire track history